DRRT

Tahoua Airport

Tahoua, Niger
METAR DRRT 211500Z 36010KT CAVOK 41/03 Q1008
Observed Flight Rules
Apr-21 @ 15:00 UTC (39 minutes ago) Visual Flight Rules
Wind Visibility Clouds
360° at 10 knots 10,000+ meters
  • Clear skies
Temperatures Readings
Current 41°C / 106°F
Dewpoint 3°C / 37°F
Humidity 9%
Altimeter 29.76" Hg
Pressure 1008 hPa
Elevation 391
METAR DRRT 211500Z 36010KT CAVOK 41/03 Q1008
Observed Flight Rules
Apr-21 @ 15:00 UTC
(39 minutes ago)
VFR
Wind Visibility
360° at 10 knots 10,000+ meters
Clouds
  • Clear skies
Temperature Dewpoint
41°C / 106°F 3°C / 37°F
Humidity Altimeter Pressure
9% 29.76" Hg 1008 hPa